SEU7839 EPKT-HEGN
Flight info
| Callsign | SEU7839 |
|---|---|
| Flight time | 3h 37m |
| Altitude | 35000 |
| Route | REGTO T195 RAZEC/N0444F350 DCT KARIL DCT ADORU UG80 EKI UL854 KUDAK/N0444F370 UL854 KULAR UT39 TOMBI M855 RASDA A16 CVO L315 SOKOT SOKOT1A |
| Aircraft | B738/M-SDE2E3FGHIRWXY/LB1 |
Departure
| Time | 2026-04-27 12:54 |
|---|---|
| Airport | Katowice Wojciech Korfanty International Airport (EPKT) |
Arrival
| Time | 2026-04-27 16:32 |
|---|---|
| Airport | Hurghada International Airport (HEGN) |
| Time | Latitude | Longitude | Altitude | Speed | Heading |
|---|---|---|---|---|---|
| 2026-04-27 12:40 | 50.47141 | 19.09284 | 997 ft | 0 kts | 180° |
| 2026-04-27 12:48 | 50.47165 | 19.09284 | 997 ft | 4 kts | 180° |
| 2026-04-27 12:49 | 50.47192 | 19.09285 | 1001 ft | 4 kts | 180° |
| 2026-04-27 12:49 | 50.47215 | 19.09283 | 999 ft | 4 kts | 156° |
| 2026-04-27 12:49 | 50.47230 | 19.09258 | 997 ft | 4 kts | 96° |
| 2026-04-27 12:49 | 50.47231 | 19.09231 | 997 ft | 1 kts | 90° |
| 2026-04-27 12:50 | 50.47231 | 19.09228 | 997 ft | 0 kts | 90° |
| 2026-04-27 12:52 | 50.47231 | 19.09327 | 999 ft | 19 kts | 84° |
| 2026-04-27 12:52 | 50.47340 | 19.09390 | 1000 ft | 18 kts | 0° |
| 2026-04-27 12:53 | 50.47583 | 19.09380 | 999 ft | 12 kts | 331° |
| 2026-04-27 12:53 | 50.47597 | 19.09329 | 1000 ft | 0 kts | 269° |
| 2026-04-27 12:54 | 50.47598 | 19.09025 | 1000 ft | 68 kts | 270° |
| 2026-04-27 12:54 | 50.47600 | 19.07860 | 997 ft | 142 kts | 270° |
| 2026-04-27 12:54 | 50.47614 | 19.06071 | 1418 ft | 175 kts | 275° |
| 2026-04-27 12:54 | 50.47653 | 19.04030 | 2207 ft | 195 kts | 272° |
| 2026-04-27 12:55 | 50.47643 | 19.01985 | 3386 ft | 193 kts | 271° |
| 2026-04-27 12:55 | 50.47640 | 18.99753 | 3740 ft | 217 kts | 271° |
| 2026-04-27 12:55 | 50.47529 | 18.98150 | 3941 ft | 229 kts | 256° |
| 2026-04-27 12:55 | 50.46383 | 18.95258 | 4664 ft | 241 kts | 224° |
| 2026-04-27 12:56 | 50.44909 | 18.93950 | 5201 ft | 252 kts | 196° |
| 2026-04-27 12:56 | 50.43081 | 18.93709 | 5582 ft | 272 kts | 182° |
| 2026-04-27 12:56 | 50.41159 | 18.93722 | 6331 ft | 276 kts | 182° |
| 2026-04-27 12:56 | 50.39231 | 18.93743 | 7137 ft | 280 kts | 182° |
| 2026-04-27 12:57 | 50.37291 | 18.93750 | 7822 ft | 286 kts | 183° |
| 2026-04-27 12:57 | 50.35287 | 18.93744 | 8555 ft | 290 kts | 183° |
| 2026-04-27 12:57 | 50.33257 | 18.93735 | 9304 ft | 295 kts | 184° |
| 2026-04-27 12:57 | 50.31184 | 18.93881 | 10018 ft | 303 kts | 170° |
| 2026-04-27 12:58 | 50.29262 | 18.95304 | 10567 ft | 317 kts | 140° |
| 2026-04-27 12:58 | 50.27884 | 18.98110 | 10752 ft | 338 kts | 115° |
| 2026-04-27 12:58 | 50.26878 | 19.01558 | 10996 ft | 358 kts | 112° |
| 2026-04-27 12:58 | 50.25866 | 19.05168 | 11533 ft | 366 kts | 112° |
| 2026-04-27 12:59 | 50.24832 | 19.08827 | 12227 ft | 370 kts | 112° |
| 2026-04-27 12:59 | 50.23773 | 19.12507 | 12909 ft | 374 kts | 113° |
| 2026-04-27 12:59 | 50.22687 | 19.16230 | 13579 ft | 379 kts | 113° |
| 2026-04-27 12:59 | 50.21582 | 19.19987 | 14213 ft | 383 kts | 113° |
| 2026-04-27 13:00 | 50.20456 | 19.23791 | 14803 ft | 388 kts | 113° |
| 2026-04-27 13:00 | 50.19318 | 19.27625 | 15391 ft | 392 kts | 113° |
| 2026-04-27 13:00 | 50.18115 | 19.31465 | 15989 ft | 396 kts | 117° |
| 2026-04-27 13:00 | 50.16726 | 19.35204 | 16586 ft | 400 kts | 120° |
| 2026-04-27 13:01 | 50.15264 | 19.38925 | 17170 ft | 404 kts | 121° |
| 2026-04-27 13:01 | 50.13788 | 19.42675 | 17753 ft | 408 kts | 120° |
| 2026-04-27 13:01 | 50.12309 | 19.46485 | 18328 ft | 413 kts | 120° |
| 2026-04-27 13:01 | 50.10829 | 19.50349 | 18840 ft | 417 kts | 119° |
| 2026-04-27 13:02 | 50.09344 | 19.54252 | 19347 ft | 420 kts | 119° |
| 2026-04-27 13:02 | 50.07846 | 19.58187 | 19843 ft | 425 kts | 120° |
| 2026-04-27 13:02 | 50.06034 | 19.61829 | 20241 ft | 431 kts | 140° |
| 2026-04-27 13:02 | 50.03533 | 19.64368 | 20766 ft | 429 kts | 159° |
| 2026-04-27 13:03 | 50.00689 | 19.65692 | 21292 ft | 426 kts | 172° |
| 2026-04-27 13:03 | 49.97767 | 19.66582 | 21764 ft | 430 kts | 173° |
| 2026-04-27 13:03 | 49.95820 | 19.67172 | 22047 ft | 433 kts | 172° |
| 2026-04-27 13:03 | 49.92854 | 19.68121 | 22498 ft | 437 kts | 171° |
| 2026-04-27 13:04 | 49.89886 | 19.69266 | 22940 ft | 445 kts | 161° |
| 2026-04-27 13:04 | 49.87182 | 19.71654 | 23329 ft | 452 kts | 141° |
| 2026-04-27 13:04 | 49.85032 | 19.75192 | 23867 ft | 452 kts | 126° |
| 2026-04-27 13:04 | 49.83156 | 19.79118 | 24251 ft | 455 kts | 125° |
| 2026-04-27 13:05 | 49.80685 | 19.84415 | 24695 ft | 461 kts | 125° |
| 2026-04-27 13:05 | 49.79410 | 19.87126 | 24928 ft | 463 kts | 125° |
| 2026-04-27 13:05 | 49.77491 | 19.91148 | 25313 ft | 466 kts | 126° |
| 2026-04-27 13:05 | 49.75546 | 19.95170 | 25699 ft | 468 kts | 126° |
| 2026-04-27 13:06 | 49.73581 | 19.99201 | 26067 ft | 471 kts | 126° |
| 2026-04-27 13:06 | 49.71603 | 20.03251 | 26400 ft | 473 kts | 126° |
| 2026-04-27 13:06 | 49.69612 | 20.07322 | 26735 ft | 476 kts | 126° |
| 2026-04-27 13:06 | 49.67609 | 20.11417 | 27057 ft | 479 kts | 126° |
| 2026-04-27 13:07 | 49.65595 | 20.15529 | 27414 ft | 481 kts | 126° |
| 2026-04-27 13:07 | 49.63573 | 20.19654 | 27755 ft | 483 kts | 126° |
| 2026-04-27 13:07 | 49.61541 | 20.23795 | 28103 ft | 485 kts | 126° |
| 2026-04-27 13:07 | 49.59488 | 20.27855 | 28408 ft | 488 kts | 130° |
| 2026-04-27 13:08 | 49.57017 | 20.31547 | 28677 ft | 491 kts | 141° |
| 2026-04-27 13:08 | 49.54355 | 20.34873 | 28994 ft | 493 kts | 142° |
| 2026-04-27 13:08 | 49.51665 | 20.38150 | 29263 ft | 495 kts | 142° |
| 2026-04-27 13:08 | 49.48952 | 20.41441 | 29533 ft | 498 kts | 142° |
| 2026-04-27 13:09 | 49.46231 | 20.44760 | 29804 ft | 500 kts | 141° |
| 2026-04-27 13:09 | 49.43507 | 20.48110 | 30099 ft | 502 kts | 141° |
| 2026-04-27 13:09 | 49.40782 | 20.51482 | 30401 ft | 502 kts | 141° |
| 2026-04-27 13:09 | 49.38118 | 20.54791 | 30970 ft | 495 kts | 141° |
| 2026-04-27 13:10 | 49.35451 | 20.58107 | 31414 ft | 492 kts | 141° |
| 2026-04-27 13:10 | 49.32795 | 20.61409 | 31682 ft | 493 kts | 141° |
| 2026-04-27 13:10 | 49.30123 | 20.64725 | 31894 ft | 495 kts | 141° |
| 2026-04-27 13:10 | 49.27444 | 20.68043 | 32188 ft | 495 kts | 141° |
| 2026-04-27 13:11 | 49.24772 | 20.71348 | 32555 ft | 493 kts | 141° |
| 2026-04-27 13:11 | 49.22108 | 20.74635 | 32914 ft | 491 kts | 142° |
| 2026-04-27 13:11 | 49.19450 | 20.77911 | 33226 ft | 491 kts | 142° |
| 2026-04-27 13:11 | 49.16792 | 20.81182 | 33547 ft | 490 kts | 142° |
| 2026-04-27 13:12 | 49.14147 | 20.84431 | 33959 ft | 486 kts | 142° |
| 2026-04-27 13:12 | 49.11512 | 20.87664 | 34259 ft | 485 kts | 142° |
| 2026-04-27 13:12 | 49.08882 | 20.90886 | 34434 ft | 487 kts | 142° |
| 2026-04-27 13:12 | 49.06228 | 20.94133 | 34465 ft | 491 kts | 142° |
| 2026-04-27 13:13 | 49.00846 | 21.00702 | 34556 ft | 500 kts | 142° |
| 2026-04-27 13:13 | 48.95391 | 21.07341 | 34803 ft | 503 kts | 142° |
| 2026-04-27 13:14 | 48.92661 | 21.10659 | 35049 ft | 501 kts | 142° |
| 2026-04-27 13:14 | 48.89941 | 21.13959 | 35176 ft | 502 kts | 142° |
| 2026-04-27 13:14 | 48.84464 | 21.20589 | 35181 ft | 502 kts | 143° |
| 2026-04-27 13:15 | 48.79004 | 21.27179 | 35187 ft | 500 kts | 143° |
| 2026-04-27 13:15 | 48.73563 | 21.33727 | 35179 ft | 499 kts | 143° |
| 2026-04-27 13:16 | 48.68140 | 21.40235 | 35193 ft | 497 kts | 143° |
| 2026-04-27 13:16 | 48.62715 | 21.46727 | 35193 ft | 497 kts | 143° |
| 2026-04-27 13:17 | 48.57283 | 21.53208 | 35186 ft | 496 kts | 143° |
| 2026-04-27 13:17 | 48.51865 | 21.59656 | 35201 ft | 496 kts | 143° |
| 2026-04-27 13:18 | 48.46437 | 21.66096 | 35208 ft | 497 kts | 143° |
| 2026-04-27 13:18 | 48.40999 | 21.72531 | 35210 ft | 498 kts | 143° |
| 2026-04-27 13:19 | 48.35550 | 21.78961 | 35213 ft | 498 kts | 143° |
| 2026-04-27 13:19 | 48.30085 | 21.85391 | 35192 ft | 499 kts | 143° |
| 2026-04-27 13:20 | 48.24621 | 21.91803 | 35214 ft | 499 kts | 143° |
| 2026-04-27 13:20 | 48.19150 | 21.98205 | 35222 ft | 499 kts | 143° |
| 2026-04-27 13:21 | 48.13684 | 22.04583 | 35225 ft | 498 kts | 143° |
| 2026-04-27 13:21 | 48.08249 | 22.10909 | 35219 ft | 498 kts | 144° |
| 2026-04-27 13:22 | 48.02777 | 22.17259 | 35215 ft | 498 kts | 144° |
| 2026-04-27 13:22 | 47.97310 | 22.23587 | 35215 ft | 496 kts | 144° |
| 2026-04-27 13:23 | 47.91856 | 22.29882 | 35218 ft | 496 kts | 144° |
| 2026-04-27 13:23 | 47.86403 | 22.36161 | 35224 ft | 495 kts | 144° |
| 2026-04-27 13:24 | 47.80915 | 22.42462 | 35226 ft | 495 kts | 144° |
| 2026-04-27 13:24 | 47.75156 | 22.47818 | 35246 ft | 490 kts | 155° |
| 2026-04-27 13:25 | 47.69085 | 22.52433 | 35213 ft | 490 kts | 156° |
| 2026-04-27 13:25 | 47.63018 | 22.57025 | 35217 ft | 489 kts | 155° |
| 2026-04-27 13:26 | 47.56977 | 22.61670 | 35221 ft | 489 kts | 155° |
| 2026-04-27 13:26 | 47.50951 | 22.66339 | 35221 ft | 489 kts | 155° |
| 2026-04-27 13:27 | 47.44918 | 22.71010 | 35212 ft | 489 kts | 155° |
| 2026-04-27 13:27 | 47.38893 | 22.75661 | 35221 ft | 489 kts | 155° |
| 2026-04-27 13:28 | 47.32862 | 22.80301 | 35227 ft | 489 kts | 155° |
| 2026-04-27 13:28 | 47.26830 | 22.84928 | 35227 ft | 489 kts | 155° |
| 2026-04-27 13:29 | 47.20794 | 22.89546 | 35232 ft | 489 kts | 155° |
| 2026-04-27 13:29 | 47.14765 | 22.94148 | 35214 ft | 488 kts | 155° |
| 2026-04-27 13:30 | 47.08766 | 22.98717 | 35207 ft | 480 kts | 155° |
| 2026-04-27 13:30 | 47.02879 | 23.03189 | 35213 ft | 474 kts | 155° |
| 2026-04-27 13:31 | 46.97025 | 23.07622 | 35213 ft | 472 kts | 155° |
| 2026-04-27 13:31 | 46.91195 | 23.12025 | 35199 ft | 471 kts | 155° |
| 2026-04-27 13:32 | 46.85556 | 23.16274 | 35214 ft | 471 kts | 155° |
| 2026-04-27 13:32 | 46.79733 | 23.20652 | 35214 ft | 471 kts | 155° |
| 2026-04-27 13:33 | 46.73890 | 23.25034 | 35206 ft | 473 kts | 155° |
| 2026-04-27 13:33 | 46.68029 | 23.29419 | 35203 ft | 474 kts | 155° |
| 2026-04-27 13:34 | 46.62148 | 23.33809 | 35185 ft | 475 kts | 156° |
| 2026-04-27 13:34 | 46.56257 | 23.38196 | 35202 ft | 476 kts | 156° |
| 2026-04-27 13:35 | 46.50350 | 23.42583 | 35201 ft | 477 kts | 156° |
| 2026-04-27 13:35 | 46.44474 | 23.46937 | 35197 ft | 477 kts | 156° |
| 2026-04-27 13:36 | 46.38558 | 23.51308 | 35200 ft | 477 kts | 156° |
| 2026-04-27 13:36 | 46.32650 | 23.55667 | 35201 ft | 477 kts | 156° |
| 2026-04-27 13:37 | 46.26739 | 23.60014 | 35197 ft | 476 kts | 156° |
| 2026-04-27 13:37 | 46.20833 | 23.64348 | 35192 ft | 476 kts | 156° |
| 2026-04-27 13:38 | 46.14937 | 23.68663 | 35194 ft | 475 kts | 156° |
| 2026-04-27 13:38 | 46.09043 | 23.72967 | 35193 ft | 474 kts | 156° |
| 2026-04-27 13:39 | 46.03156 | 23.77255 | 35189 ft | 474 kts | 156° |
| 2026-04-27 13:39 | 45.97276 | 23.81527 | 35191 ft | 473 kts | 156° |
| 2026-04-27 13:40 | 45.91399 | 23.85788 | 35174 ft | 473 kts | 156° |
| 2026-04-27 13:40 | 45.85525 | 23.90037 | 35156 ft | 472 kts | 156° |
| 2026-04-27 13:41 | 45.79653 | 23.94273 | 35150 ft | 472 kts | 156° |
| 2026-04-27 13:41 | 45.73786 | 23.98496 | 35157 ft | 472 kts | 157° |
| 2026-04-27 13:42 | 45.67916 | 24.02712 | 35196 ft | 472 kts | 157° |
| 2026-04-27 13:42 | 45.62036 | 24.06924 | 35173 ft | 473 kts | 157° |
| 2026-04-27 13:43 | 45.56153 | 24.11127 | 35185 ft | 473 kts | 157° |
| 2026-04-27 13:43 | 45.50269 | 24.15323 | 35190 ft | 473 kts | 157° |
| 2026-04-27 13:44 | 45.44422 | 24.19482 | 35205 ft | 473 kts | 157° |
| 2026-04-27 13:44 | 45.38525 | 24.23641 | 35202 ft | 474 kts | 157° |
| 2026-04-27 13:45 | 45.32633 | 24.27826 | 35205 ft | 473 kts | 157° |
| 2026-04-27 13:45 | 45.26750 | 24.31993 | 35216 ft | 473 kts | 157° |
| 2026-04-27 13:46 | 45.20863 | 24.36146 | 35218 ft | 472 kts | 157° |
| 2026-04-27 13:46 | 45.14979 | 24.40282 | 35215 ft | 472 kts | 157° |
| 2026-04-27 13:47 | 45.09101 | 24.44404 | 35211 ft | 471 kts | 157° |
| 2026-04-27 13:47 | 45.03232 | 24.48511 | 35221 ft | 470 kts | 158° |
| 2026-04-27 13:48 | 44.97372 | 24.52603 | 35214 ft | 470 kts | 158° |
| 2026-04-27 13:48 | 44.91510 | 24.56686 | 35225 ft | 470 kts | 158° |
| 2026-04-27 13:49 | 44.85648 | 24.60760 | 35209 ft | 469 kts | 158° |
| 2026-04-27 13:49 | 44.79790 | 24.64823 | 35216 ft | 469 kts | 158° |
| 2026-04-27 13:50 | 44.73937 | 24.68872 | 35218 ft | 469 kts | 158° |
| 2026-04-27 13:50 | 44.68114 | 24.72892 | 35222 ft | 469 kts | 158° |
| 2026-04-27 13:51 | 44.62255 | 24.76927 | 35211 ft | 469 kts | 158° |
| 2026-04-27 13:51 | 44.56388 | 24.80959 | 35218 ft | 470 kts | 158° |
| 2026-04-27 13:52 | 44.50518 | 24.84984 | 35218 ft | 469 kts | 158° |
| 2026-04-27 13:52 | 44.45643 | 24.88319 | 35216 ft | 470 kts | 158° |
| 2026-04-27 13:53 | 44.36833 | 24.94332 | 35201 ft | 469 kts | 158° |
| 2026-04-27 13:54 | 44.30964 | 24.98326 | 35210 ft | 469 kts | 158° |
| 2026-04-27 13:54 | 44.25100 | 25.02309 | 35213 ft | 468 kts | 158° |
| 2026-04-27 13:55 | 44.19241 | 25.06278 | 35215 ft | 468 kts | 158° |
| 2026-04-27 13:55 | 44.13384 | 25.10237 | 35218 ft | 468 kts | 158° |
| 2026-04-27 13:56 | 44.07536 | 25.14182 | 35206 ft | 467 kts | 158° |
| 2026-04-27 13:56 | 44.01687 | 25.18118 | 35211 ft | 467 kts | 158° |
| 2026-04-27 13:57 | 43.95842 | 25.22043 | 35209 ft | 467 kts | 158° |
| 2026-04-27 13:57 | 43.89993 | 25.25962 | 35198 ft | 467 kts | 158° |
| 2026-04-27 13:58 | 43.84141 | 25.29875 | 35198 ft | 467 kts | 158° |
| 2026-04-27 13:58 | 43.78285 | 25.33781 | 35189 ft | 467 kts | 158° |
| 2026-04-27 13:59 | 43.72429 | 25.37680 | 35186 ft | 467 kts | 158° |
| 2026-04-27 13:59 | 43.66580 | 25.41565 | 35185 ft | 467 kts | 158° |
| 2026-04-27 14:00 | 43.60724 | 25.45446 | 35173 ft | 467 kts | 158° |
| 2026-04-27 14:00 | 43.54867 | 25.49320 | 35177 ft | 467 kts | 158° |
| 2026-04-27 14:01 | 43.49010 | 25.53185 | 35168 ft | 467 kts | 158° |
| 2026-04-27 14:01 | 43.43151 | 25.57043 | 35167 ft | 467 kts | 158° |
| 2026-04-27 14:02 | 43.37569 | 25.60711 | 35150 ft | 467 kts | 158° |
| 2026-04-27 14:02 | 43.31709 | 25.64554 | 35158 ft | 466 kts | 158° |
| 2026-04-27 14:03 | 43.25863 | 25.68379 | 35160 ft | 466 kts | 158° |
| 2026-04-27 14:03 | 43.20010 | 25.72201 | 35167 ft | 466 kts | 158° |
| 2026-04-27 14:04 | 43.14159 | 25.76012 | 35153 ft | 465 kts | 158° |
| 2026-04-27 14:04 | 43.08312 | 25.79814 | 35159 ft | 465 kts | 158° |
| 2026-04-27 14:05 | 43.02464 | 25.83608 | 35150 ft | 465 kts | 158° |
| 2026-04-27 14:05 | 42.96657 | 25.87368 | 35163 ft | 465 kts | 158° |
| 2026-04-27 14:06 | 42.90818 | 25.91140 | 35169 ft | 464 kts | 158° |
| 2026-04-27 14:06 | 42.84978 | 25.94905 | 35173 ft | 464 kts | 158° |
| 2026-04-27 14:07 | 42.79140 | 25.98660 | 35188 ft | 464 kts | 158° |
| 2026-04-27 14:07 | 42.73314 | 26.02420 | 35198 ft | 463 kts | 156° |
| 2026-04-27 14:08 | 42.67510 | 26.06203 | 35188 ft | 462 kts | 158° |
| 2026-04-27 14:08 | 42.61685 | 26.09873 | 35218 ft | 462 kts | 158° |
| 2026-04-27 14:09 | 42.55863 | 26.13559 | 35213 ft | 462 kts | 158° |
| 2026-04-27 14:09 | 42.50048 | 26.17256 | 35220 ft | 462 kts | 158° |
| 2026-04-27 14:10 | 42.44232 | 26.20954 | 35219 ft | 462 kts | 158° |
| 2026-04-27 14:10 | 42.38408 | 26.24647 | 35225 ft | 462 kts | 158° |
| 2026-04-27 14:11 | 42.32580 | 26.28336 | 35216 ft | 463 kts | 158° |
| 2026-04-27 14:11 | 42.26744 | 26.32021 | 35217 ft | 463 kts | 158° |
| 2026-04-27 14:12 | 42.20906 | 26.35700 | 35209 ft | 463 kts | 158° |
| 2026-04-27 14:12 | 42.15069 | 26.39371 | 35218 ft | 463 kts | 158° |
| 2026-04-27 14:13 | 42.09239 | 26.43030 | 35221 ft | 463 kts | 158° |
| 2026-04-27 14:13 | 42.03402 | 26.46687 | 35209 ft | 463 kts | 158° |
| 2026-04-27 14:14 | 41.97567 | 26.50335 | 35210 ft | 462 kts | 158° |
| 2026-04-27 14:14 | 41.91735 | 26.53975 | 35210 ft | 462 kts | 158° |
| 2026-04-27 14:15 | 41.85966 | 26.57793 | 35202 ft | 465 kts | 150° |
| 2026-04-27 14:15 | 41.80673 | 26.62784 | 35208 ft | 466 kts | 146° |
| 2026-04-27 14:16 | 41.75429 | 26.67887 | 35202 ft | 466 kts | 147° |
| 2026-04-27 14:16 | 41.70192 | 26.72885 | 35208 ft | 465 kts | 147° |
| 2026-04-27 14:17 | 41.64902 | 26.77868 | 35216 ft | 465 kts | 147° |
| 2026-04-27 14:17 | 41.59608 | 26.82839 | 35212 ft | 465 kts | 147° |
| 2026-04-27 14:18 | 41.54312 | 26.87806 | 35214 ft | 465 kts | 147° |
| 2026-04-27 14:18 | 41.49023 | 26.92760 | 35211 ft | 465 kts | 147° |
| 2026-04-27 14:19 | 41.43726 | 26.97706 | 35211 ft | 465 kts | 148° |
| 2026-04-27 14:19 | 41.38425 | 27.02636 | 35216 ft | 464 kts | 148° |
| 2026-04-27 14:20 | 41.33128 | 27.07556 | 35215 ft | 464 kts | 148° |
| 2026-04-27 14:20 | 41.27833 | 27.12467 | 35207 ft | 464 kts | 148° |
| 2026-04-27 14:21 | 41.22546 | 27.17362 | 35212 ft | 463 kts | 148° |
| 2026-04-27 14:21 | 41.17253 | 27.22247 | 35217 ft | 463 kts | 148° |
| 2026-04-27 14:22 | 41.11963 | 27.27120 | 35210 ft | 463 kts | 148° |
| 2026-04-27 14:22 | 41.06674 | 27.31984 | 35209 ft | 463 kts | 148° |
| 2026-04-27 14:23 | 41.01386 | 27.36840 | 35203 ft | 462 kts | 148° |
| 2026-04-27 14:23 | 40.96100 | 27.41665 | 35205 ft | 461 kts | 149° |
| 2026-04-27 14:23 | 40.93305 | 27.43708 | 35195 ft | 458 kts | 160° |
| 2026-04-27 14:24 | 40.90360 | 27.45280 | 35214 ft | 456 kts | 161° |
| 2026-04-27 14:24 | 40.84476 | 27.48277 | 35211 ft | 456 kts | 161° |
| 2026-04-27 14:25 | 40.78562 | 27.51332 | 35191 ft | 457 kts | 161° |
| 2026-04-27 14:25 | 40.72657 | 27.54431 | 35206 ft | 457 kts | 161° |
| 2026-04-27 14:26 | 40.66745 | 27.57541 | 35208 ft | 458 kts | 161° |
| 2026-04-27 14:26 | 40.60827 | 27.60646 | 35206 ft | 459 kts | 161° |
| 2026-04-27 14:27 | 40.54889 | 27.63754 | 35199 ft | 460 kts | 162° |
| 2026-04-27 14:27 | 40.48941 | 27.66873 | 35208 ft | 461 kts | 161° |
| 2026-04-27 14:28 | 40.42988 | 27.70017 | 35207 ft | 462 kts | 161° |
| 2026-04-27 14:28 | 40.37023 | 27.73165 | 35207 ft | 462 kts | 161° |
| 2026-04-27 14:29 | 40.31048 | 27.76308 | 35206 ft | 463 kts | 161° |
| 2026-04-27 14:29 | 40.25076 | 27.79444 | 35186 ft | 463 kts | 161° |
| 2026-04-27 14:30 | 40.19100 | 27.82574 | 35186 ft | 462 kts | 161° |
| 2026-04-27 14:30 | 40.13129 | 27.85696 | 35190 ft | 462 kts | 161° |
| 2026-04-27 14:31 | 40.07165 | 27.88809 | 35185 ft | 461 kts | 161° |
| 2026-04-27 14:31 | 40.01206 | 27.91913 | 35182 ft | 461 kts | 161° |
| 2026-04-27 14:32 | 39.95249 | 27.95011 | 35167 ft | 460 kts | 161° |
| 2026-04-27 14:32 | 39.89305 | 27.98097 | 35150 ft | 460 kts | 161° |
| 2026-04-27 14:33 | 39.83388 | 28.01137 | 35144 ft | 460 kts | 161° |
| 2026-04-27 14:33 | 39.77414 | 28.04118 | 35141 ft | 460 kts | 162° |
| 2026-04-27 14:34 | 39.71434 | 28.07091 | 35143 ft | 460 kts | 161° |
| 2026-04-27 14:34 | 39.65454 | 28.10069 | 35120 ft | 460 kts | 161° |
| 2026-04-27 14:35 | 39.59482 | 28.13043 | 35147 ft | 460 kts | 161° |
| 2026-04-27 14:35 | 39.53503 | 28.16016 | 35143 ft | 460 kts | 161° |
| 2026-04-27 14:36 | 39.47523 | 28.18984 | 35144 ft | 460 kts | 161° |
| 2026-04-27 14:36 | 39.41541 | 28.21947 | 35126 ft | 460 kts | 161° |
| 2026-04-27 14:37 | 39.35559 | 28.24906 | 35130 ft | 460 kts | 161° |
| 2026-04-27 14:37 | 39.29575 | 28.27858 | 35129 ft | 460 kts | 161° |
| 2026-04-27 14:38 | 39.23584 | 28.30782 | 35130 ft | 460 kts | 161° |
| 2026-04-27 14:38 | 39.17597 | 28.33688 | 35121 ft | 460 kts | 161° |
| 2026-04-27 14:39 | 39.11602 | 28.36598 | 35107 ft | 460 kts | 161° |
| 2026-04-27 14:39 | 39.05609 | 28.39504 | 35096 ft | 460 kts | 161° |
| 2026-04-27 14:40 | 38.99675 | 28.42450 | 35103 ft | 460 kts | 160° |
| 2026-04-27 14:40 | 38.93715 | 28.45476 | 35078 ft | 460 kts | 160° |
| 2026-04-27 14:41 | 38.87756 | 28.48492 | 35070 ft | 460 kts | 160° |
| 2026-04-27 14:41 | 38.81802 | 28.51487 | 35079 ft | 460 kts | 160° |
| 2026-04-27 14:42 | 38.76840 | 28.53977 | 35071 ft | 461 kts | 160° |
| 2026-04-27 14:42 | 38.70862 | 28.56971 | 35057 ft | 461 kts | 160° |
| 2026-04-27 14:43 | 38.64880 | 28.59964 | 35053 ft | 462 kts | 160° |
| 2026-04-27 14:43 | 38.58907 | 28.62995 | 35046 ft | 463 kts | 156° |
| 2026-04-27 14:44 | 38.53448 | 28.67347 | 35060 ft | 464 kts | 146° |
| 2026-04-27 14:44 | 38.48199 | 28.72162 | 35046 ft | 465 kts | 145° |
| 2026-04-27 14:45 | 38.42933 | 28.76953 | 35052 ft | 465 kts | 146° |
| 2026-04-27 14:45 | 38.37641 | 28.81702 | 35044 ft | 465 kts | 146° |
| 2026-04-27 14:46 | 38.32337 | 28.86429 | 35051 ft | 465 kts | 146° |
| 2026-04-27 14:46 | 38.27034 | 28.91143 | 35047 ft | 465 kts | 146° |
| 2026-04-27 14:47 | 38.21723 | 28.95858 | 35039 ft | 465 kts | 146° |
| 2026-04-27 14:47 | 38.16413 | 29.00564 | 35045 ft | 465 kts | 146° |
| 2026-04-27 14:48 | 38.11104 | 29.05262 | 35044 ft | 465 kts | 146° |
| 2026-04-27 14:48 | 38.03171 | 29.12266 | 35045 ft | 465 kts | 146° |
| 2026-04-27 14:49 | 37.97854 | 29.16950 | 35050 ft | 465 kts | 146° |
| 2026-04-27 14:49 | 37.92541 | 29.21621 | 35031 ft | 465 kts | 146° |
| 2026-04-27 14:50 | 37.87228 | 29.26285 | 35062 ft | 465 kts | 146° |
| 2026-04-27 14:50 | 37.81914 | 29.30941 | 35058 ft | 464 kts | 146° |
| 2026-04-27 14:51 | 37.76599 | 29.35590 | 35059 ft | 465 kts | 146° |
| 2026-04-27 14:51 | 37.71278 | 29.40235 | 35047 ft | 465 kts | 146° |
| 2026-04-27 14:52 | 37.65957 | 29.44872 | 35053 ft | 465 kts | 146° |
| 2026-04-27 14:52 | 37.60627 | 29.49510 | 35052 ft | 465 kts | 146° |
| 2026-04-27 14:53 | 37.55293 | 29.54143 | 35055 ft | 466 kts | 146° |
| 2026-04-27 14:53 | 37.49959 | 29.58767 | 35061 ft | 466 kts | 147° |
| 2026-04-27 14:54 | 37.44616 | 29.63391 | 35053 ft | 466 kts | 147° |
| 2026-04-27 14:54 | 37.39262 | 29.68018 | 35054 ft | 467 kts | 147° |
| 2026-04-27 14:55 | 37.33904 | 29.72639 | 35048 ft | 467 kts | 147° |
| 2026-04-27 14:55 | 37.28542 | 29.77269 | 35046 ft | 468 kts | 146° |
| 2026-04-27 14:56 | 37.23178 | 29.81900 | 35054 ft | 468 kts | 147° |
| 2026-04-27 14:56 | 37.17807 | 29.86530 | 35047 ft | 469 kts | 147° |
| 2026-04-27 14:57 | 37.12434 | 29.91152 | 35043 ft | 469 kts | 147° |
| 2026-04-27 14:57 | 37.07051 | 29.95761 | 35050 ft | 468 kts | 147° |
| 2026-04-27 14:58 | 37.01695 | 30.00323 | 35042 ft | 469 kts | 147° |
| 2026-04-27 14:58 | 36.96275 | 30.04935 | 35046 ft | 468 kts | 147° |
| 2026-04-27 14:59 | 36.90925 | 30.09484 | 35044 ft | 468 kts | 147° |
| 2026-04-27 14:59 | 36.85546 | 30.14050 | 35020 ft | 468 kts | 147° |
| 2026-04-27 15:00 | 36.80166 | 30.18612 | 35016 ft | 467 kts | 147° |
| 2026-04-27 15:00 | 36.74788 | 30.23171 | 35014 ft | 467 kts | 147° |
| 2026-04-27 15:01 | 36.69410 | 30.27724 | 35023 ft | 467 kts | 147° |
| 2026-04-27 15:01 | 36.64035 | 30.32266 | 35004 ft | 467 kts | 147° |
| 2026-04-27 15:02 | 36.58928 | 30.36575 | 34995 ft | 467 kts | 147° |
| 2026-04-27 15:02 | 36.53553 | 30.41102 | 34956 ft | 467 kts | 147° |
| 2026-04-27 15:03 | 36.48176 | 30.45622 | 34968 ft | 466 kts | 147° |
| 2026-04-27 15:03 | 36.42803 | 30.50132 | 34973 ft | 466 kts | 147° |
| 2026-04-27 15:04 | 36.37427 | 30.54638 | 34949 ft | 466 kts | 147° |
| 2026-04-27 15:04 | 36.32046 | 30.59139 | 34949 ft | 467 kts | 147° |
| 2026-04-27 15:05 | 36.26665 | 30.63633 | 34935 ft | 467 kts | 147° |
| 2026-04-27 15:05 | 36.21271 | 30.68130 | 34944 ft | 467 kts | 147° |
| 2026-04-27 15:06 | 36.15880 | 30.72619 | 34943 ft | 468 kts | 147° |
| 2026-04-27 15:06 | 36.10512 | 30.77080 | 34943 ft | 468 kts | 147° |
| 2026-04-27 15:07 | 36.04903 | 30.81115 | 34938 ft | 465 kts | 161° |
| 2026-04-27 15:07 | 35.98663 | 30.82889 | 34933 ft | 459 kts | 179° |
| 2026-04-27 15:08 | 35.92282 | 30.83215 | 34943 ft | 459 kts | 180° |
| 2026-04-27 15:08 | 35.85894 | 30.83528 | 34945 ft | 460 kts | 180° |
| 2026-04-27 15:09 | 35.79500 | 30.83903 | 34937 ft | 460 kts | 180° |
| 2026-04-27 15:09 | 35.73106 | 30.84299 | 34945 ft | 460 kts | 180° |
| 2026-04-27 15:10 | 35.66711 | 30.84694 | 34947 ft | 460 kts | 180° |
| 2026-04-27 15:10 | 35.60325 | 30.85075 | 34948 ft | 460 kts | 180° |
| 2026-04-27 15:11 | 35.53934 | 30.85309 | 34943 ft | 459 kts | 181° |
| 2026-04-27 15:11 | 35.47590 | 30.85495 | 34951 ft | 459 kts | 181° |
| 2026-04-27 15:12 | 35.41215 | 30.85701 | 34953 ft | 459 kts | 181° |
| 2026-04-27 15:12 | 35.34835 | 30.85918 | 34940 ft | 458 kts | 181° |
| 2026-04-27 15:13 | 35.28460 | 30.86137 | 34952 ft | 458 kts | 181° |
| 2026-04-27 15:13 | 35.22088 | 30.86354 | 34953 ft | 458 kts | 181° |
| 2026-04-27 15:14 | 35.15718 | 30.86569 | 34955 ft | 458 kts | 181° |
| 2026-04-27 15:14 | 35.09349 | 30.86775 | 34949 ft | 458 kts | 181° |
| 2026-04-27 15:15 | 35.02991 | 30.86978 | 34956 ft | 458 kts | 181° |
| 2026-04-27 15:15 | 34.96622 | 30.87182 | 34957 ft | 458 kts | 181° |
| 2026-04-27 15:16 | 34.90252 | 30.87386 | 34940 ft | 458 kts | 181° |
| 2026-04-27 15:16 | 34.83921 | 30.87589 | 34954 ft | 458 kts | 181° |
| 2026-04-27 15:17 | 34.77505 | 30.87795 | 34954 ft | 459 kts | 181° |
| 2026-04-27 15:17 | 34.71117 | 30.87999 | 34954 ft | 459 kts | 181° |
| 2026-04-27 15:18 | 34.64763 | 30.88202 | 34953 ft | 460 kts | 182° |
| 2026-04-27 15:18 | 34.58367 | 30.88436 | 34958 ft | 461 kts | 181° |
| 2026-04-27 15:19 | 34.51956 | 30.88774 | 34959 ft | 461 kts | 181° |
| 2026-04-27 15:19 | 34.45537 | 30.89120 | 34947 ft | 462 kts | 181° |
| 2026-04-27 15:20 | 34.39112 | 30.89450 | 34959 ft | 462 kts | 181° |
| 2026-04-27 15:20 | 34.32685 | 30.89775 | 34958 ft | 463 kts | 181° |
| 2026-04-27 15:21 | 34.26250 | 30.90101 | 34959 ft | 463 kts | 181° |
| 2026-04-27 15:21 | 34.19817 | 30.90439 | 34958 ft | 463 kts | 181° |
| 2026-04-27 15:22 | 34.13376 | 30.90800 | 34961 ft | 463 kts | 181° |
| 2026-04-27 15:22 | 34.06936 | 30.91159 | 34962 ft | 463 kts | 181° |
| 2026-04-27 15:23 | 34.00500 | 30.91514 | 34952 ft | 463 kts | 181° |
| 2026-04-27 15:23 | 33.94067 | 30.91863 | 34969 ft | 462 kts | 181° |
| 2026-04-27 15:24 | 33.87637 | 30.92121 | 34961 ft | 462 kts | 182° |
| 2026-04-27 15:24 | 33.81211 | 30.92344 | 34961 ft | 462 kts | 182° |
| 2026-04-27 15:25 | 33.74794 | 30.92575 | 34963 ft | 462 kts | 182° |
| 2026-04-27 15:25 | 33.68372 | 30.92815 | 34966 ft | 462 kts | 182° |
| 2026-04-27 15:26 | 33.61949 | 30.93058 | 34963 ft | 462 kts | 182° |
| 2026-04-27 15:26 | 33.55523 | 30.93299 | 34949 ft | 462 kts | 182° |
| 2026-04-27 15:27 | 33.49100 | 30.93540 | 34961 ft | 462 kts | 182° |
| 2026-04-27 15:27 | 33.42671 | 30.93781 | 34967 ft | 462 kts | 182° |
| 2026-04-27 15:28 | 33.36234 | 30.94022 | 34967 ft | 463 kts | 182° |
| 2026-04-27 15:28 | 33.30884 | 30.94222 | 34958 ft | 463 kts | 182° |
| 2026-04-27 15:29 | 33.24437 | 30.94462 | 34967 ft | 464 kts | 182° |
| 2026-04-27 15:29 | 33.17984 | 30.94703 | 34967 ft | 464 kts | 182° |
| 2026-04-27 15:30 | 33.11529 | 30.94943 | 34970 ft | 464 kts | 182° |
| 2026-04-27 15:30 | 33.05064 | 30.95423 | 34969 ft | 466 kts | 178° |
| 2026-04-27 15:31 | 32.98603 | 30.96197 | 34967 ft | 467 kts | 178° |
| 2026-04-27 15:31 | 32.92143 | 30.96978 | 34970 ft | 467 kts | 178° |
| 2026-04-27 15:32 | 32.85673 | 30.97719 | 34953 ft | 467 kts | 178° |
| 2026-04-27 15:32 | 32.79207 | 30.98440 | 34969 ft | 466 kts | 179° |
| 2026-04-27 15:33 | 32.72791 | 30.99151 | 34976 ft | 467 kts | 179° |
| 2026-04-27 15:33 | 32.66324 | 30.99867 | 34970 ft | 467 kts | 179° |
| 2026-04-27 15:34 | 32.59860 | 31.00584 | 34959 ft | 466 kts | 179° |
| 2026-04-27 15:34 | 32.53399 | 31.01299 | 34966 ft | 466 kts | 179° |
| 2026-04-27 15:35 | 32.46941 | 31.02013 | 34976 ft | 466 kts | 179° |
| 2026-04-27 15:35 | 32.40489 | 31.02725 | 34975 ft | 466 kts | 179° |
| 2026-04-27 15:36 | 32.34031 | 31.03437 | 34964 ft | 466 kts | 179° |
| 2026-04-27 15:36 | 32.27575 | 31.04147 | 34975 ft | 466 kts | 179° |
| 2026-04-27 15:37 | 32.21120 | 31.04857 | 34975 ft | 466 kts | 179° |
| 2026-04-27 15:37 | 32.14662 | 31.05566 | 34975 ft | 466 kts | 179° |
| 2026-04-27 15:38 | 32.08202 | 31.06274 | 34972 ft | 466 kts | 179° |
| 2026-04-27 15:38 | 32.01748 | 31.06980 | 34977 ft | 466 kts | 179° |
| 2026-04-27 15:39 | 31.95283 | 31.07687 | 34977 ft | 467 kts | 179° |
| 2026-04-27 15:39 | 31.88812 | 31.08393 | 34978 ft | 467 kts | 179° |
| 2026-04-27 15:40 | 31.82342 | 31.09099 | 34980 ft | 467 kts | 179° |
| 2026-04-27 15:40 | 31.75868 | 31.09805 | 34981 ft | 467 kts | 179° |
| 2026-04-27 15:41 | 31.69388 | 31.10510 | 34984 ft | 468 kts | 179° |
| 2026-04-27 15:41 | 31.62907 | 31.11214 | 34964 ft | 468 kts | 180° |
| 2026-04-27 15:42 | 31.56426 | 31.11918 | 34981 ft | 468 kts | 180° |
| 2026-04-27 15:42 | 31.49987 | 31.12736 | 34987 ft | 470 kts | 176° |
| 2026-04-27 15:43 | 31.43526 | 31.13959 | 34985 ft | 471 kts | 175° |
| 2026-04-27 15:43 | 31.37050 | 31.15215 | 34967 ft | 471 kts | 176° |
| 2026-04-27 15:44 | 31.30568 | 31.16415 | 34981 ft | 472 kts | 176° |
| 2026-04-27 15:44 | 31.24082 | 31.17602 | 34990 ft | 473 kts | 176° |
| 2026-04-27 15:45 | 31.17578 | 31.18808 | 34982 ft | 474 kts | 176° |
| 2026-04-27 15:45 | 31.11063 | 31.20025 | 34982 ft | 475 kts | 176° |
| 2026-04-27 15:46 | 31.04662 | 31.21219 | 34983 ft | 476 kts | 176° |
| 2026-04-27 15:46 | 30.98110 | 31.22437 | 34983 ft | 477 kts | 176° |
| 2026-04-27 15:47 | 30.91544 | 31.23656 | 34982 ft | 479 kts | 176° |
| 2026-04-27 15:47 | 30.84957 | 31.24877 | 34969 ft | 480 kts | 177° |
| 2026-04-27 15:48 | 30.78360 | 31.26098 | 34982 ft | 480 kts | 177° |
| 2026-04-27 15:49 | 30.68448 | 31.27929 | 34980 ft | 481 kts | 177° |
| 2026-04-27 15:49 | 30.61832 | 31.29150 | 34966 ft | 481 kts | 177° |
| 2026-04-27 15:50 | 30.55217 | 31.30369 | 34978 ft | 481 kts | 177° |
| 2026-04-27 15:50 | 30.48610 | 31.31584 | 34979 ft | 481 kts | 177° |
| 2026-04-27 15:51 | 30.41994 | 31.32799 | 34977 ft | 481 kts | 177° |
| 2026-04-27 15:51 | 30.35379 | 31.34013 | 34973 ft | 481 kts | 177° |
| 2026-04-27 15:52 | 30.28769 | 31.35224 | 34975 ft | 481 kts | 177° |
| 2026-04-27 15:52 | 30.22203 | 31.36425 | 34969 ft | 481 kts | 177° |
| 2026-04-27 15:53 | 30.15592 | 31.37633 | 34968 ft | 481 kts | 177° |
| 2026-04-27 15:53 | 30.09066 | 31.39596 | 34972 ft | 493 kts | 162° |
| 2026-04-27 15:54 | 30.03107 | 31.43753 | 34981 ft | 503 kts | 147° |
| 2026-04-27 15:54 | 29.97558 | 31.48601 | 34970 ft | 504 kts | 147° |
| 2026-04-27 15:55 | 29.91970 | 31.53486 | 34974 ft | 504 kts | 147° |
| 2026-04-27 15:55 | 29.86351 | 31.58314 | 34985 ft | 504 kts | 148° |
| 2026-04-27 15:56 | 29.80716 | 31.63109 | 34967 ft | 503 kts | 148° |
| 2026-04-27 15:56 | 29.75083 | 31.67889 | 34987 ft | 503 kts | 148° |
| 2026-04-27 15:57 | 29.69457 | 31.72660 | 34996 ft | 503 kts | 148° |
| 2026-04-27 15:57 | 29.63823 | 31.77432 | 35003 ft | 503 kts | 148° |
| 2026-04-27 15:58 | 29.58193 | 31.82196 | 35001 ft | 503 kts | 148° |
| 2026-04-27 15:58 | 29.52561 | 31.86963 | 34994 ft | 503 kts | 148° |
| 2026-04-27 15:59 | 29.46927 | 31.91730 | 34990 ft | 503 kts | 149° |
| 2026-04-27 15:59 | 29.41275 | 31.96475 | 34988 ft | 504 kts | 149° |
| 2026-04-27 16:00 | 29.35622 | 32.01223 | 34988 ft | 505 kts | 149° |
| 2026-04-27 16:00 | 29.29955 | 32.05984 | 34996 ft | 505 kts | 148° |
| 2026-04-27 16:01 | 29.24278 | 32.10748 | 34987 ft | 506 kts | 149° |
| 2026-04-27 16:01 | 29.18594 | 32.15510 | 34983 ft | 506 kts | 149° |
| 2026-04-27 16:02 | 29.12911 | 32.20253 | 34978 ft | 505 kts | 149° |
| 2026-04-27 16:02 | 29.07232 | 32.24990 | 34979 ft | 505 kts | 149° |
| 2026-04-27 16:03 | 29.01568 | 32.29717 | 34974 ft | 504 kts | 149° |
| 2026-04-27 16:03 | 28.95901 | 32.34439 | 34978 ft | 504 kts | 149° |
| 2026-04-27 16:04 | 28.90241 | 32.39149 | 34980 ft | 503 kts | 149° |
| 2026-04-27 16:04 | 28.84584 | 32.43842 | 34961 ft | 503 kts | 149° |
| 2026-04-27 16:05 | 28.78891 | 32.48488 | 34971 ft | 503 kts | 149° |
| 2026-04-27 16:05 | 28.73240 | 32.53211 | 34960 ft | 504 kts | 149° |
| 2026-04-27 16:06 | 28.67600 | 32.57917 | 34929 ft | 499 kts | 149° |
| 2026-04-27 16:06 | 28.64812 | 32.60234 | 34593 ft | 493 kts | 149° |
| 2026-04-27 16:06 | 28.62046 | 32.62522 | 34020 ft | 493 kts | 149° |
| 2026-04-27 16:06 | 28.59289 | 32.64794 | 33261 ft | 497 kts | 149° |
| 2026-04-27 16:07 | 28.56484 | 32.67104 | 32520 ft | 499 kts | 149° |
| 2026-04-27 16:07 | 28.53659 | 32.69429 | 31749 ft | 502 kts | 149° |
| 2026-04-27 16:07 | 28.50834 | 32.71755 | 31060 ft | 503 kts | 149° |
| 2026-04-27 16:07 | 28.48004 | 32.74086 | 30423 ft | 502 kts | 148° |
| 2026-04-27 16:08 | 28.45181 | 32.76411 | 29795 ft | 500 kts | 148° |
| 2026-04-27 16:08 | 28.42364 | 32.78729 | 29015 ft | 499 kts | 148° |
| 2026-04-27 16:08 | 28.39552 | 32.81041 | 28217 ft | 499 kts | 148° |
| 2026-04-27 16:08 | 28.36759 | 32.83337 | 27787 ft | 491 kts | 148° |
| 2026-04-27 16:09 | 28.34005 | 32.85599 | 27323 ft | 491 kts | 148° |
| 2026-04-27 16:09 | 28.28354 | 32.90224 | 26457 ft | 506 kts | 147° |
| 2026-04-27 16:09 | 28.25507 | 32.92556 | 26008 ft | 504 kts | 147° |
| 2026-04-27 16:10 | 28.19838 | 32.97200 | 25222 ft | 500 kts | 147° |
| 2026-04-27 16:10 | 28.14218 | 33.01795 | 24336 ft | 493 kts | 147° |
| 2026-04-27 16:11 | 28.11445 | 33.04059 | 23911 ft | 489 kts | 147° |
| 2026-04-27 16:11 | 28.05959 | 33.08535 | 22961 ft | 480 kts | 147° |
| 2026-04-27 16:12 | 28.00757 | 33.12776 | 22154 ft | 442 kts | 147° |
| 2026-04-27 16:12 | 27.98316 | 33.14763 | 21882 ft | 423 kts | 147° |
| 2026-04-27 16:12 | 27.93721 | 33.18496 | 21305 ft | 393 kts | 148° |
| 2026-04-27 16:13 | 27.91531 | 33.20273 | 20935 ft | 382 kts | 148° |
| 2026-04-27 16:13 | 27.87323 | 33.23685 | 20273 ft | 365 kts | 148° |
| 2026-04-27 16:13 | 27.85264 | 33.25352 | 19956 ft | 363 kts | 148° |
| 2026-04-27 16:14 | 27.81175 | 33.28661 | 19286 ft | 360 kts | 148° |
| 2026-04-27 16:14 | 27.77134 | 33.31932 | 18602 ft | 360 kts | 148° |
| 2026-04-27 16:15 | 27.73079 | 33.35214 | 17877 ft | 358 kts | 148° |
| 2026-04-27 16:15 | 27.69723 | 33.37928 | 17299 ft | 355 kts | 148° |
| 2026-04-27 16:16 | 27.65723 | 33.41162 | 16622 ft | 352 kts | 148° |
| 2026-04-27 16:16 | 27.61758 | 33.44364 | 15963 ft | 349 kts | 148° |
| 2026-04-27 16:17 | 27.57827 | 33.47537 | 15306 ft | 346 kts | 148° |
| 2026-04-27 16:17 | 27.53914 | 33.50688 | 14655 ft | 345 kts | 148° |
| 2026-04-27 16:18 | 27.49883 | 33.53534 | 14002 ft | 338 kts | 160° |
| 2026-04-27 16:18 | 27.45542 | 33.55529 | 13308 ft | 336 kts | 162° |
| 2026-04-27 16:19 | 27.43381 | 33.56518 | 12976 ft | 335 kts | 161° |
| 2026-04-27 16:19 | 27.41239 | 33.57532 | 12647 ft | 333 kts | 161° |
| 2026-04-27 16:20 | 27.34884 | 33.60573 | 11680 ft | 327 kts | 165° |
| 2026-04-27 16:20 | 27.32719 | 33.61282 | 11379 ft | 323 kts | 169° |
| 2026-04-27 16:20 | 27.28377 | 33.62476 | 10741 ft | 320 kts | 171° |
| 2026-04-27 16:21 | 27.26221 | 33.63085 | 10436 ft | 318 kts | 171° |
| 2026-04-27 16:21 | 27.19927 | 33.64939 | 9819 ft | 304 kts | 171° |
| 2026-04-27 16:22 | 27.17892 | 33.65542 | 9529 ft | 302 kts | 171° |
| 2026-04-27 16:22 | 27.13873 | 33.66730 | 8955 ft | 299 kts | 170° |
| 2026-04-27 16:22 | 27.11840 | 33.67330 | 8581 ft | 301 kts | 169° |
| 2026-04-27 16:23 | 27.09830 | 33.67926 | 8199 ft | 303 kts | 169° |
| 2026-04-27 16:23 | 27.05746 | 33.69139 | 7575 ft | 302 kts | 170° |
| 2026-04-27 16:23 | 27.03720 | 33.69740 | 7283 ft | 300 kts | 169° |
| 2026-04-27 16:24 | 27.01711 | 33.70336 | 6993 ft | 298 kts | 169° |
| 2026-04-27 16:24 | 26.97713 | 33.71515 | 6450 ft | 296 kts | 168° |
| 2026-04-27 16:25 | 26.94319 | 33.73777 | 6155 ft | 286 kts | 121° |
| 2026-04-27 16:25 | 26.93706 | 33.78029 | 5298 ft | 280 kts | 71° |
| 2026-04-27 16:26 | 26.95458 | 33.81587 | 4431 ft | 259 kts | 51° |
| 2026-04-27 16:26 | 26.98018 | 33.84243 | 3182 ft | 244 kts | 9° |
| 2026-04-27 16:27 | 27.01002 | 33.84003 | 2957 ft | 193 kts | 347° |
| 2026-04-27 16:27 | 27.04332 | 33.83099 | 2453 ft | 144 kts | 343° |
| 2026-04-27 16:28 | 27.05436 | 33.82776 | 2249 ft | 132 kts | 343° |
| 2026-04-27 16:28 | 27.06499 | 33.82462 | 2030 ft | 133 kts | 343° |
| 2026-04-27 16:29 | 27.09227 | 33.81655 | 1490 ft | 139 kts | 345° |
| 2026-04-27 16:30 | 27.11011 | 33.81127 | 1140 ft | 128 kts | 347° |
| 2026-04-27 16:30 | 27.12824 | 33.80612 | 777 ft | 134 kts | 349° |
| 2026-04-27 16:31 | 27.15591 | 33.79766 | 216 ft | 133 kts | 348° |
| 2026-04-27 16:31 | 27.17178 | 33.79304 | 56 ft | 92 kts | 345° |
| 2026-04-27 16:32 | 27.17956 | 33.79077 | 58 ft | 33 kts | 346° |
| 2026-04-27 16:32 | 27.18161 | 33.79016 | 58 ft | 29 kts | 348° |
| 2026-04-27 16:33 | 27.18488 | 33.79079 | 57 ft | 16 kts | 83° |
| 2026-04-27 16:33 | 27.18420 | 33.79137 | 59 ft | 13 kts | 166° |
| 2026-04-27 16:33 | 27.18332 | 33.79162 | 57 ft | 13 kts | 166° |
| 2026-04-27 16:33 | 27.18242 | 33.79190 | 57 ft | 16 kts | 164° |
| 2026-04-27 16:34 | 27.18101 | 33.79232 | 59 ft | 26 kts | 166° |
| 2026-04-27 16:34 | 27.17897 | 33.79293 | 58 ft | 34 kts | 165° |
| 2026-04-27 16:34 | 27.17666 | 33.79360 | 56 ft | 34 kts | 165° |
| 2026-04-27 16:34 | 27.17443 | 33.79426 | 56 ft | 32 kts | 165° |
| 2026-04-27 16:35 | 27.17245 | 33.79513 | 58 ft | 30 kts | 115° |
| 2026-04-27 16:35 | 27.17283 | 33.79733 | 60 ft | 28 kts | 75° |
| 2026-04-27 16:35 | 27.17376 | 33.80133 | 57 ft | 25 kts | 75° |
| 2026-04-27 16:36 | 27.17448 | 33.80297 | 55 ft | 23 kts | 71° |
| 2026-04-27 16:36 | 27.17564 | 33.80355 | 55 ft | 22 kts | 346° |
| 2026-04-27 16:36 | 27.17713 | 33.80313 | 54 ft | 22 kts | 346° |
| 2026-04-27 16:36 | 27.17857 | 33.80270 | 56 ft | 21 kts | 346° |
| 2026-04-27 16:37 | 27.17997 | 33.80228 | 55 ft | 20 kts | 345° |
| 2026-04-27 16:37 | 27.18134 | 33.80194 | 57 ft | 20 kts | 7° |
| 2026-04-27 16:37 | 27.18197 | 33.80320 | 55 ft | 19 kts | 75° |
| 2026-04-27 16:37 | 27.18152 | 33.80432 | 56 ft | 19 kts | 164° |
| 2026-04-27 16:38 | 27.18055 | 33.80461 | 54 ft | 6 kts | 168° |
| 2026-04-27 16:38 | 27.18024 | 33.80435 | 55 ft | 6 kts | 251° |
| 2026-04-27 16:38 | 27.18012 | 33.80387 | 60 ft | 6 kts | 256° |
| 2026-04-27 16:38 | 27.18011 | 33.80384 | 60 ft | 0 kts | 255° |